sensor_id;sensor_type;location;lat;lon;timestamp;P1;durP1;ratioP1;P2;durP2;ratioP2
18200;SDS011;9226;47.858;9.594;2023-05-31T00:00:12;8.73;;;4.70;;
18200;SDS011;9226;47.858;9.594;2023-05-31T00:02:37;12.83;;;4.70;;
18200;SDS011;9226;47.858;9.594;2023-05-31T00:05:03;9.83;;;4.67;;
18200;SDS011;9226;47.858;9.594;2023-05-31T00:07:29;9.60;;;4.93;;
18200;SDS011;9226;47.858;9.594;2023-05-31T00:09:54;7.97;;;4.57;;
18200;SDS011;9226;47.858;9.594;2023-05-31T00:12:20;10.33;;;4.23;;
18200;SDS011;9226;47.858;9.594;2023-05-31T00:14:45;8.23;;;4.60;;
18200;SDS011;9226;47.858;9.594;2023-05-31T00:17:12;9.20;;;4.47;;
18200;SDS011;9226;47.858;9.594;2023-05-31T00:19:38;8.43;;;4.70;;
18200;SDS011;9226;47.858;9.594;2023-05-31T00:22:04;12.00;;;5.23;;
18200;SDS011;9226;47.858;9.594;2023-05-31T00:24:30;12.17;;;4.77;;
18200;SDS011;9226;47.858;9.594;2023-05-31T00:26:56;11.83;;;4.67;;
18200;SDS011;9226;47.858;9.594;2023-05-31T00:29:21;8.03;;;4.83;;
18200;SDS011;9226;47.858;9.594;2023-05-31T00:31:46;10.87;;;5.20;;
18200;SDS011;9226;47.858;9.594;2023-05-31T00:34:12;8.03;;;4.93;;
18200;SDS011;9226;47.858;9.594;2023-05-31T00:36:37;10.40;;;5.07;;
18200;SDS011;9226;47.858;9.594;2023-05-31T00:39:03;8.13;;;4.90;;
18200;SDS011;9226;47.858;9.594;2023-05-31T00:41:28;8.63;;;4.43;;
18200;SDS011;9226;47.858;9.594;2023-05-31T00:43:54;9.17;;;4.50;;
18200;SDS011;9226;47.858;9.594;2023-05-31T00:46:30;9.97;;;4.93;;
18200;SDS011;9226;47.858;9.594;2023-05-31T00:48:58;20.50;;;5.07;;
18200;SDS011;9226;47.858;9.594;2023-05-31T00:51:24;9.40;;;5.03;;
18200;SDS011;9226;47.858;9.594;2023-05-31T00:53:52;14.47;;;5.37;;
18200;SDS011;9226;47.858;9.594;2023-05-31T00:56:18;11.60;;;5.00;;
18200;SDS011;9226;47.858;9.594;2023-05-31T00:58:46;10.97;;;4.67;;
18200;SDS011;9226;47.858;9.594;2023-05-31T01:01:13;10.30;;;5.00;;
18200;SDS011;9226;47.858;9.594;2023-05-31T01:03:40;8.90;;;4.90;;
18200;SDS011;9226;47.858;9.594;2023-05-31T01:06:05;11.17;;;4.60;;
18200;SDS011;9226;47.858;9.594;2023-05-31T01:08:32;12.03;;;4.73;;
18200;SDS011;9226;47.858;9.594;2023-05-31T01:10:59;9.03;;;4.83;;
18200;SDS011;9226;47.858;9.594;2023-05-31T01:16:08;19.87;;;4.77;;
18200;SDS011;9226;47.858;9.594;2023-05-31T01:18:46;12.03;;;4.40;;
18200;SDS011;9226;47.858;9.594;2023-05-31T01:21:19;7.33;;;4.70;;
18200;SDS011;9226;47.858;9.594;2023-05-31T01:26:51;10.87;;;4.57;;
18200;SDS011;9226;47.858;9.594;2023-05-31T01:29:23;8.97;;;4.30;;
18200;SDS011;9226;47.858;9.594;2023-05-31T01:31:51;10.17;;;4.37;;
18200;SDS011;9226;47.858;9.594;2023-05-31T01:34:17;12.50;;;5.07;;
18200;SDS011;9226;47.858;9.594;2023-05-31T01:36:43;9.07;;;4.50;;
18200;SDS011;9226;47.858;9.594;2023-05-31T01:39:08;11.37;;;4.57;;
18200;SDS011;9226;47.858;9.594;2023-05-31T01:41:38;9.00;;;4.53;;
18200;SDS011;9226;47.858;9.594;2023-05-31T01:44:05;14.40;;;4.87;;
18200;SDS011;9226;47.858;9.594;2023-05-31T01:46:32;11.70;;;4.33;;
18200;SDS011;9226;47.858;9.594;2023-05-31T01:48:57;7.63;;;3.87;;
18200;SDS011;9226;47.858;9.594;2023-05-31T01:51:24;7.97;;;4.27;;
18200;SDS011;9226;47.858;9.594;2023-05-31T01:53:51;8.40;;;4.60;;
18200;SDS011;9226;47.858;9.594;2023-05-31T01:56:18;10.07;;;4.73;;
18200;SDS011;9226;47.858;9.594;2023-05-31T01:58:44;8.10;;;4.53;;
18200;SDS011;9226;47.858;9.594;2023-05-31T02:01:13;11.00;;;4.00;;
18200;SDS011;9226;47.858;9.594;2023-05-31T02:03:39;9.93;;;4.50;;
18200;SDS011;9226;47.858;9.594;2023-05-31T02:06:05;10.40;;;4.60;;
18200;SDS011;9226;47.858;9.594;2023-05-31T02:08:31;9.77;;;4.57;;
18200;SDS011;9226;47.858;9.594;2023-05-31T02:10:56;7.27;;;3.87;;
18200;SDS011;9226;47.858;9.594;2023-05-31T02:13:26;9.30;;;4.20;;
18200;SDS011;9226;47.858;9.594;2023-05-31T02:15:53;12.87;;;4.70;;
18200;SDS011;9226;47.858;9.594;2023-05-31T02:18:19;7.87;;;4.57;;
18200;SDS011;9226;47.858;9.594;2023-05-31T02:20:45;8.73;;;4.10;;
18200;SDS011;9226;47.858;9.594;2023-05-31T02:23:10;11.47;;;3.87;;
18200;SDS011;9226;47.858;9.594;2023-05-31T02:25:35;6.20;;;3.70;;
18200;SDS011;9226;47.858;9.594;2023-05-31T02:28:01;7.63;;;3.80;;
18200;SDS011;9226;47.858;9.594;2023-05-31T02:30:26;7.77;;;4.00;;
18200;SDS011;9226;47.858;9.594;2023-05-31T02:32:53;10.13;;;4.27;;
18200;SDS011;9226;47.858;9.594;2023-05-31T02:35:18;7.87;;;3.60;;
18200;SDS011;9226;47.858;9.594;2023-05-31T02:37:44;6.13;;;3.63;;
18200;SDS011;9226;47.858;9.594;2023-05-31T02:40:10;6.63;;;3.53;;
18200;SDS011;9226;47.858;9.594;2023-05-31T02:42:38;10.60;;;3.80;;
18200;SDS011;9226;47.858;9.594;2023-05-31T02:45:06;8.63;;;4.00;;
18200;SDS011;9226;47.858;9.594;2023-05-31T02:47:32;6.97;;;3.97;;
18200;SDS011;9226;47.858;9.594;2023-05-31T02:49:58;6.80;;;3.77;;
18200;SDS011;9226;47.858;9.594;2023-05-31T02:52:24;5.73;;;3.93;;
18200;SDS011;9226;47.858;9.594;2023-05-31T02:54:51;8.20;;;3.80;;
18200;SDS011;9226;47.858;9.594;2023-05-31T02:57:17;8.47;;;3.87;;
18200;SDS011;9226;47.858;9.594;2023-05-31T02:59:43;6.87;;;3.70;;
18200;SDS011;9226;47.858;9.594;2023-05-31T03:02:09;10.07;;;4.57;;
18200;SDS011;9226;47.858;9.594;2023-05-31T03:04:35;9.17;;;3.73;;
18200;SDS011;9226;47.858;9.594;2023-05-31T03:07:00;8.80;;;3.67;;
18200;SDS011;9226;47.858;9.594;2023-05-31T03:09:26;9.37;;;3.50;;
18200;SDS011;9226;47.858;9.594;2023-05-31T03:11:51;6.43;;;3.50;;
18200;SDS011;9226;47.858;9.594;2023-05-31T03:14:17;10.13;;;3.60;;
18200;SDS011;9226;47.858;9.594;2023-05-31T03:16:42;10.10;;;3.80;;
18200;SDS011;9226;47.858;9.594;2023-05-31T03:19:08;11.30;;;3.50;;
18200;SDS011;9226;47.858;9.594;2023-05-31T03:21:33;7.57;;;3.20;;
18200;SDS011;9226;47.858;9.594;2023-05-31T03:23:59;7.33;;;3.33;;
18200;SDS011;9226;47.858;9.594;2023-05-31T03:26:24;5.07;;;3.23;;
18200;SDS011;9226;47.858;9.594;2023-05-31T03:28:50;8.33;;;3.63;;
18200;SDS011;9226;47.858;9.594;2023-05-31T03:31:16;7.80;;;3.60;;
18200;SDS011;9226;47.858;9.594;2023-05-31T03:33:42;9.50;;;3.63;;
18200;SDS011;9226;47.858;9.594;2023-05-31T03:36:07;8.93;;;3.70;;
18200;SDS011;9226;47.858;9.594;2023-05-31T03:38:33;9.77;;;3.40;;
18200;SDS011;9226;47.858;9.594;2023-05-31T03:40:58;10.63;;;3.80;;
18200;SDS011;9226;47.858;9.594;2023-05-31T03:43:24;7.57;;;3.07;;
18200;SDS011;9226;47.858;9.594;2023-05-31T03:45:49;6.63;;;3.50;;
18200;SDS011;9226;47.858;9.594;2023-05-31T03:48:14;6.97;;;3.30;;
18200;SDS011;9226;47.858;9.594;2023-05-31T03:50:40;6.27;;;2.90;;
18200;SDS011;9226;47.858;9.594;2023-05-31T03:53:05;7.07;;;3.10;;
18200;SDS011;9226;47.858;9.594;2023-05-31T03:55:31;6.67;;;2.90;;
18200;SDS011;9226;47.858;9.594;2023-05-31T03:57:57;6.93;;;3.07;;
18200;SDS011;9226;47.858;9.594;2023-05-31T04:00:23;8.90;;;3.53;;
18200;SDS011;9226;47.858;9.594;2023-05-31T04:02:48;6.07;;;2.77;;
18200;SDS011;9226;47.858;9.594;2023-05-31T04:05:14;8.03;;;3.53;;
18200;SDS011;9226;47.858;9.594;2023-05-31T04:07:40;6.47;;;3.10;;
18200;SDS011;9226;47.858;9.594;2023-05-31T04:10:06;6.40;;;3.30;;
18200;SDS011;9226;47.858;9.594;2023-05-31T04:12:31;6.57;;;3.13;;
18200;SDS011;9226;47.858;9.594;2023-05-31T04:14:57;9.20;;;3.03;;
18200;SDS011;9226;47.858;9.594;2023-05-31T04:17:22;8.67;;;3.43;;
18200;SDS011;9226;47.858;9.594;2023-05-31T04:19:48;8.77;;;3.33;;
18200;SDS011;9226;47.858;9.594;2023-05-31T04:22:13;9.90;;;2.93;;
18200;SDS011;9226;47.858;9.594;2023-05-31T04:24:38;8.83;;;3.17;;
18200;SDS011;9226;47.858;9.594;2023-05-31T04:27:04;5.73;;;2.40;;
18200;SDS011;9226;47.858;9.594;2023-05-31T04:29:31;6.83;;;3.07;;
18200;SDS011;9226;47.858;9.594;2023-05-31T04:31:57;8.37;;;3.13;;
18200;SDS011;9226;47.858;9.594;2023-05-31T04:34:23;7.77;;;3.07;;
18200;SDS011;9226;47.858;9.594;2023-05-31T04:36:48;6.17;;;2.57;;
18200;SDS011;9226;47.858;9.594;2023-05-31T04:39:15;8.17;;;3.13;;
18200;SDS011;9226;47.858;9.594;2023-05-31T04:41:41;5.20;;;2.70;;
18200;SDS011;9226;47.858;9.594;2023-05-31T04:44:06;3.90;;;2.40;;
18200;SDS011;9226;47.858;9.594;2023-05-31T04:46:32;5.00;;;3.00;;
18200;SDS011;9226;47.858;9.594;2023-05-31T04:48:57;5.70;;;2.33;;
18200;SDS011;9226;47.858;9.594;2023-05-31T04:51:25;7.83;;;2.60;;
18200;SDS011;9226;47.858;9.594;2023-05-31T04:53:51;8.70;;;2.67;;
18200;SDS011;9226;47.858;9.594;2023-05-31T04:56:16;8.93;;;3.00;;
18200;SDS011;9226;47.858;9.594;2023-05-31T04:58:42;6.20;;;2.83;;
18200;SDS011;9226;47.858;9.594;2023-05-31T05:01:07;9.20;;;2.80;;
18200;SDS011;9226;47.858;9.594;2023-05-31T05:03:33;8.97;;;2.70;;
18200;SDS011;9226;47.858;9.594;2023-05-31T05:06:00;7.50;;;2.80;;
18200;SDS011;9226;47.858;9.594;2023-05-31T05:08:27;4.27;;;2.27;;
18200;SDS011;9226;47.858;9.594;2023-05-31T05:10:53;9.37;;;2.80;;
18200;SDS011;9226;47.858;9.594;2023-05-31T05:13:18;6.00;;;3.10;;
18200;SDS011;9226;47.858;9.594;2023-05-31T05:15:43;5.67;;;2.90;;
18200;SDS011;9226;47.858;9.594;2023-05-31T05:18:09;4.47;;;2.60;;
18200;SDS011;9226;47.858;9.594;2023-05-31T05:20:34;7.67;;;3.00;;
18200;SDS011;9226;47.858;9.594;2023-05-31T05:23:00;10.00;;;2.73;;
18200;SDS011;9226;47.858;9.594;2023-05-31T05:25:32;11.40;;;2.80;;
18200;SDS011;9226;47.858;9.594;2023-05-31T05:27:57;7.23;;;2.80;;
18200;SDS011;9226;47.858;9.594;2023-05-31T05:30:23;7.70;;;2.90;;
18200;SDS011;9226;47.858;9.594;2023-05-31T05:32:48;6.17;;;2.23;;
18200;SDS011;9226;47.858;9.594;2023-05-31T05:35:14;7.90;;;2.87;;
18200;SDS011;9226;47.858;9.594;2023-05-31T05:37:39;7.97;;;2.90;;
18200;SDS011;9226;47.858;9.594;2023-05-31T05:40:05;6.87;;;2.80;;
18200;SDS011;9226;47.858;9.594;2023-05-31T05:42:32;11.73;;;2.90;;
18200;SDS011;9226;47.858;9.594;2023-05-31T05:45:01;5.80;;;2.90;;
18200;SDS011;9226;47.858;9.594;2023-05-31T05:47:27;7.93;;;3.13;;
18200;SDS011;9226;47.858;9.594;2023-05-31T05:49:52;10.77;;;2.80;;
18200;SDS011;9226;47.858;9.594;2023-05-31T05:52:18;5.13;;;2.70;;
18200;SDS011;9226;47.858;9.594;2023-05-31T05:54:43;5.13;;;2.63;;
18200;SDS011;9226;47.858;9.594;2023-05-31T05:57:09;5.97;;;2.70;;
18200;SDS011;9226;47.858;9.594;2023-05-31T05:59:34;8.33;;;3.37;;
18200;SDS011;9226;47.858;9.594;2023-05-31T06:02:00;5.90;;;2.77;;
18200;SDS011;9226;47.858;9.594;2023-05-31T06:04:25;5.73;;;2.53;;
18200;SDS011;9226;47.858;9.594;2023-05-31T06:06:50;6.23;;;2.50;;
18200;SDS011;9226;47.858;9.594;2023-05-31T06:09:16;3.80;;;2.50;;
18200;SDS011;9226;47.858;9.594;2023-05-31T06:11:41;5.97;;;3.03;;
18200;SDS011;9226;47.858;9.594;2023-05-31T06:14:07;5.53;;;2.77;;
18200;SDS011;9226;47.858;9.594;2023-05-31T06:16:32;6.63;;;2.63;;
18200;SDS011;9226;47.858;9.594;2023-05-31T06:18:58;7.67;;;3.00;;
18200;SDS011;9226;47.858;9.594;2023-05-31T06:21:23;8.53;;;2.97;;
18200;SDS011;9226;47.858;9.594;2023-05-31T06:23:49;7.80;;;3.27;;
18200;SDS011;9226;47.858;9.594;2023-05-31T06:26:14;6.77;;;3.20;;
18200;SDS011;9226;47.858;9.594;2023-05-31T06:28:39;9.03;;;3.03;;
18200;SDS011;9226;47.858;9.594;2023-05-31T06:31:05;3.10;;;2.50;;
18200;SDS011;9226;47.858;9.594;2023-05-31T06:33:33;6.93;;;2.83;;
18200;SDS011;9226;47.858;9.594;2023-05-31T06:35:58;5.97;;;3.07;;
18200;SDS011;9226;47.858;9.594;2023-05-31T06:38:24;7.72;;;2.67;;
18200;SDS011;9226;47.858;9.594;2023-05-31T06:40:49;5.47;;;2.77;;
18200;SDS011;9226;47.858;9.594;2023-05-31T06:43:14;6.05;;;2.85;;
18200;SDS011;9226;47.858;9.594;2023-05-31T06:45:40;8.10;;;3.25;;
18200;SDS011;9226;47.858;9.594;2023-05-31T06:48:07;6.18;;;2.83;;
18200;SDS011;9226;47.858;9.594;2023-05-31T06:50:33;7.07;;;3.03;;
18200;SDS011;9226;47.858;9.594;2023-05-31T06:52:59;5.70;;;3.10;;
18200;SDS011;9226;47.858;9.594;2023-05-31T06:55:24;6.95;;;3.25;;
18200;SDS011;9226;47.858;9.594;2023-05-31T06:57:50;4.93;;;2.83;;
18200;SDS011;9226;47.858;9.594;2023-05-31T07:00:15;7.70;;;3.38;;
18200;SDS011;9226;47.858;9.594;2023-05-31T07:02:41;6.25;;;3.15;;
18200;SDS011;9226;47.858;9.594;2023-05-31T07:05:07;7.43;;;3.60;;
18200;SDS011;9226;47.858;9.594;2023-05-31T07:07:32;5.45;;;3.03;;
18200;SDS011;9226;47.858;9.594;2023-05-31T07:09:58;5.20;;;3.42;;
18200;SDS011;9226;47.858;9.594;2023-05-31T07:12:23;8.80;;;3.20;;
18200;SDS011;9226;47.858;9.594;2023-05-31T07:14:48;5.80;;;3.15;;
18200;SDS011;9226;47.858;9.594;2023-05-31T07:17:14;6.07;;;3.13;;
18200;SDS011;9226;47.858;9.594;2023-05-31T07:19:43;5.38;;;2.67;;
18200;SDS011;9226;47.858;9.594;2023-05-31T07:22:12;5.80;;;3.20;;
18200;SDS011;9226;47.858;9.594;2023-05-31T07:24:38;5.03;;;2.78;;
18200;SDS011;9226;47.858;9.594;2023-05-31T07:27:04;4.70;;;2.88;;
18200;SDS011;9226;47.858;9.594;2023-05-31T07:29:30;7.97;;;3.10;;
18200;SDS011;9226;47.858;9.594;2023-05-31T07:31:55;8.60;;;3.08;;
18200;SDS011;9226;47.858;9.594;2023-05-31T07:34:21;6.15;;;2.90;;
18200;SDS011;9226;47.858;9.594;2023-05-31T07:36:46;6.35;;;3.05;;
18200;SDS011;9226;47.858;9.594;2023-05-31T07:39:12;4.90;;;2.90;;
18200;SDS011;9226;47.858;9.594;2023-05-31T07:41:37;6.70;;;3.30;;
18200;SDS011;9226;47.858;9.594;2023-05-31T07:44:03;7.10;;;4.03;;
18200;SDS011;9226;47.858;9.594;2023-05-31T07:46:28;5.57;;;3.20;;
18200;SDS011;9226;47.858;9.594;2023-05-31T07:48:54;10.73;;;3.50;;
18200;SDS011;9226;47.858;9.594;2023-05-31T07:51:19;8.77;;;3.20;;
18200;SDS011;9226;47.858;9.594;2023-05-31T07:53:45;7.47;;;3.15;;
18200;SDS011;9226;47.858;9.594;2023-05-31T07:56:11;5.53;;;3.50;;
18200;SDS011;9226;47.858;9.594;2023-05-31T07:58:37;5.25;;;2.90;;
18200;SDS011;9226;47.858;9.594;2023-05-31T08:01:03;6.25;;;2.85;;
18200;SDS011;9226;47.858;9.594;2023-05-31T08:03:28;4.88;;;3.00;;
18200;SDS011;9226;47.858;9.594;2023-05-31T08:05:54;5.35;;;3.13;;
18200;SDS011;9226;47.858;9.594;2023-05-31T08:08:19;6.45;;;3.40;;
18200;SDS011;9226;47.858;9.594;2023-05-31T08:10:45;5.88;;;3.20;;
18200;SDS011;9226;47.858;9.594;2023-05-31T08:13:10;7.32;;;3.30;;
18200;SDS011;9226;47.858;9.594;2023-05-31T08:15:36;4.95;;;3.33;;
18200;SDS011;9226;47.858;9.594;2023-05-31T08:18:01;6.57;;;3.42;;
18200;SDS011;9226;47.858;9.594;2023-05-31T08:20:27;7.05;;;3.80;;
18200;SDS011;9226;47.858;9.594;2023-05-31T08:22:53;8.63;;;3.30;;
18200;SDS011;9226;47.858;9.594;2023-05-31T08:25:18;4.25;;;3.00;;
18200;SDS011;9226;47.858;9.594;2023-05-31T08:27:44;8.80;;;3.60;;
18200;SDS011;9226;47.858;9.594;2023-05-31T08:30:10;6.90;;;3.33;;
18200;SDS011;9226;47.858;9.594;2023-05-31T08:32:36;9.23;;;3.17;;
18200;SDS011;9226;47.858;9.594;2023-05-31T08:35:02;6.63;;;3.28;;
18200;SDS011;9226;47.858;9.594;2023-05-31T08:37:28;10.52;;;3.58;;
18200;SDS011;9226;47.858;9.594;2023-05-31T08:39:53;6.45;;;3.50;;
18200;SDS011;9226;47.858;9.594;2023-05-31T08:42:23;7.47;;;3.53;;
18200;SDS011;9226;47.858;9.594;2023-05-31T08:44:51;6.80;;;3.28;;
18200;SDS011;9226;47.858;9.594;2023-05-31T08:47:23;6.10;;;3.70;;
18200;SDS011;9226;47.858;9.594;2023-05-31T08:50:16;6.07;;;3.65;;
18200;SDS011;9226;47.858;9.594;2023-05-31T08:52:42;5.63;;;3.30;;
18200;SDS011;9226;47.858;9.594;2023-05-31T08:55:10;6.40;;;3.00;;
18200;SDS011;9226;47.858;9.594;2023-05-31T08:57:37;11.82;;;3.33;;
18200;SDS011;9226;47.858;9.594;2023-05-31T09:00:03;10.27;;;3.50;;
18200;SDS011;9226;47.858;9.594;2023-05-31T09:02:42;12.55;;;3.72;;
18200;SDS011;9226;47.858;9.594;2023-05-31T09:05:09;5.33;;;3.03;;
18200;SDS011;9226;47.858;9.594;2023-05-31T09:07:36;6.23;;;3.77;;
18200;SDS011;9226;47.858;9.594;2023-05-31T09:10:02;7.03;;;3.30;;
18200;SDS011;9226;47.858;9.594;2023-05-31T09:12:28;15.73;;;3.93;;
18200;SDS011;9226;47.858;9.594;2023-05-31T09:14:54;6.17;;;3.53;;
18200;SDS011;9226;47.858;9.594;2023-05-31T09:17:20;20.57;;;3.73;;
18200;SDS011;9226;47.858;9.594;2023-05-31T09:19:49;9.33;;;3.90;;
18200;SDS011;9226;47.858;9.594;2023-05-31T09:22:17;8.53;;;3.60;;
18200;SDS011;9226;47.858;9.594;2023-05-31T09:24:56;9.70;;;3.87;;
18200;SDS011;9226;47.858;9.594;2023-05-31T09:27:22;4.77;;;3.23;;
18200;SDS011;9226;47.858;9.594;2023-05-31T09:29:51;8.50;;;3.67;;
18200;SDS011;9226;47.858;9.594;2023-05-31T09:32:18;8.50;;;3.70;;
18200;SDS011;9226;47.858;9.594;2023-05-31T09:34:43;7.17;;;3.30;;
18200;SDS011;9226;47.858;9.594;2023-05-31T09:37:09;10.30;;;3.33;;
18200;SDS011;9226;47.858;9.594;2023-05-31T09:39:34;10.43;;;3.40;;
18200;SDS011;9226;47.858;9.594;2023-05-31T09:42:00;5.27;;;3.40;;
18200;SDS011;9226;47.858;9.594;2023-05-31T09:44:26;8.53;;;3.43;;
18200;SDS011;9226;47.858;9.594;2023-05-31T09:46:55;8.03;;;3.50;;
18200;SDS011;9226;47.858;9.594;2023-05-31T09:49:21;10.73;;;3.53;;
18200;SDS011;9226;47.858;9.594;2023-05-31T09:51:50;7.17;;;3.73;;
18200;SDS011;9226;47.858;9.594;2023-05-31T09:54:19;9.97;;;3.37;;
18200;SDS011;9226;47.858;9.594;2023-05-31T09:56:50;6.83;;;3.77;;
18200;SDS011;9226;47.858;9.594;2023-05-31T09:59:15;9.03;;;3.83;;
18200;SDS011;9226;47.858;9.594;2023-05-31T10:01:41;6.67;;;3.40;;
18200;SDS011;9226;47.858;9.594;2023-05-31T10:04:07;7.50;;;4.03;;
18200;SDS011;9226;47.858;9.594;2023-05-31T10:06:32;7.73;;;3.53;;
18200;SDS011;9226;47.858;9.594;2023-05-31T10:09:01;7.67;;;3.27;;
18200;SDS011;9226;47.858;9.594;2023-05-31T10:11:35;6.97;;;2.90;;
18200;SDS011;9226;47.858;9.594;2023-05-31T10:14:14;10.80;;;3.60;;
18200;SDS011;9226;47.858;9.594;2023-05-31T10:16:48;6.85;;;3.60;;
18200;SDS011;9226;47.858;9.594;2023-05-31T10:19:22;7.30;;;3.67;;
18200;SDS011;9226;47.858;9.594;2023-05-31T10:21:49;9.97;;;3.50;;
18200;SDS011;9226;47.858;9.594;2023-05-31T10:24:25;6.00;;;3.60;;
18200;SDS011;9226;47.858;9.594;2023-05-31T10:27:02;6.00;;;3.10;;
18200;SDS011;9226;47.858;9.594;2023-05-31T10:29:38;10.60;;;3.83;;
18200;SDS011;9226;47.858;9.594;2023-05-31T10:32:21;11.50;;;3.37;;
18200;SDS011;9226;47.858;9.594;2023-05-31T10:34:49;8.60;;;3.60;;
18200;SDS011;9226;47.858;9.594;2023-05-31T10:37:15;10.67;;;3.47;;
18200;SDS011;9226;47.858;9.594;2023-05-31T10:39:43;6.53;;;3.70;;
18200;SDS011;9226;47.858;9.594;2023-05-31T10:42:27;8.63;;;3.60;;
18200;SDS011;9226;47.858;9.594;2023-05-31T10:44:59;4.93;;;2.83;;
18200;SDS011;9226;47.858;9.594;2023-05-31T10:47:51;7.53;;;3.40;;
18200;SDS011;9226;47.858;9.594;2023-05-31T10:50:23;11.97;;;4.00;;
18200;SDS011;9226;47.858;9.594;2023-05-31T10:52:52;18.57;;;3.77;;
18200;SDS011;9226;47.858;9.594;2023-05-31T10:55:32;11.13;;;3.73;;
18200;SDS011;9226;47.858;9.594;2023-05-31T10:58:31;7.67;;;3.20;;
18200;SDS011;9226;47.858;9.594;2023-05-31T11:01:06;7.03;;;3.60;;
18200;SDS011;9226;47.858;9.594;2023-05-31T11:03:34;16.17;;;3.60;;
18200;SDS011;9226;47.858;9.594;2023-05-31T11:06:01;8.37;;;3.30;;
18200;SDS011;9226;47.858;9.594;2023-05-31T11:08:29;8.47;;;3.50;;
18200;SDS011;9226;47.858;9.594;2023-05-31T11:16:28;7.72;;;3.58;;
18200;SDS011;9226;47.858;9.594;2023-05-31T11:19:05;8.73;;;3.63;;
18200;SDS011;9226;47.858;9.594;2023-05-31T11:24:30;6.87;;;3.03;;
18200;SDS011;9226;47.858;9.594;2023-05-31T11:26:57;8.63;;;3.67;;
18200;SDS011;9226;47.858;9.594;2023-05-31T11:32:13;8.53;;;3.37;;
18200;SDS011;9226;47.858;9.594;2023-05-31T11:34:58;10.37;;;3.33;;
18200;SDS011;9226;47.858;9.594;2023-05-31T11:37:26;6.73;;;3.03;;
18200;SDS011;9226;47.858;9.594;2023-05-31T11:39:54;6.10;;;3.47;;
18200;SDS011;9226;47.858;9.594;2023-05-31T11:42:20;8.13;;;3.40;;
18200;SDS011;9226;47.858;9.594;2023-05-31T11:44:49;8.60;;;3.37;;
18200;SDS011;9226;47.858;9.594;2023-05-31T11:47:19;6.73;;;3.57;;
18200;SDS011;9226;47.858;9.594;2023-05-31T11:49:45;7.67;;;3.57;;
18200;SDS011;9226;47.858;9.594;2023-05-31T11:52:15;10.90;;;3.17;;
18200;SDS011;9226;47.858;9.594;2023-05-31T11:54:42;8.03;;;3.37;;
18200;SDS011;9226;47.858;9.594;2023-05-31T11:57:10;6.70;;;3.20;;
18200;SDS011;9226;47.858;9.594;2023-05-31T11:59:36;8.77;;;3.27;;
18200;SDS011;9226;47.858;9.594;2023-05-31T12:02:04;7.43;;;3.50;;
18200;SDS011;9226;47.858;9.594;2023-05-31T12:04:51;7.17;;;3.50;;
18200;SDS011;9226;47.858;9.594;2023-05-31T12:07:19;7.27;;;3.03;;
18200;SDS011;9226;47.858;9.594;2023-05-31T12:09:45;6.40;;;3.27;;
18200;SDS011;9226;47.858;9.594;2023-05-31T12:12:11;8.83;;;3.30;;
18200;SDS011;9226;47.858;9.594;2023-05-31T12:14:37;6.80;;;3.20;;
18200;SDS011;9226;47.858;9.594;2023-05-31T12:17:03;7.47;;;2.83;;
18200;SDS011;9226;47.858;9.594;2023-05-31T12:19:31;7.90;;;3.23;;
18200;SDS011;9226;47.858;9.594;2023-05-31T12:21:58;8.63;;;3.20;;
18200;SDS011;9226;47.858;9.594;2023-05-31T12:24:23;6.83;;;3.10;;
18200;SDS011;9226;47.858;9.594;2023-05-31T12:26:49;7.97;;;3.00;;
18200;SDS011;9226;47.858;9.594;2023-05-31T12:29:15;6.97;;;3.00;;
18200;SDS011;9226;47.858;9.594;2023-05-31T12:31:41;6.97;;;3.30;;
18200;SDS011;9226;47.858;9.594;2023-05-31T12:34:11;5.97;;;3.00;;
18200;SDS011;9226;47.858;9.594;2023-05-31T12:39:08;6.50;;;3.23;;
18200;SDS011;9226;47.858;9.594;2023-05-31T12:41:40;6.07;;;2.97;;
18200;SDS011;9226;47.858;9.594;2023-05-31T12:44:06;7.97;;;3.27;;
18200;SDS011;9226;47.858;9.594;2023-05-31T12:46:39;7.47;;;3.10;;
18200;SDS011;9226;47.858;9.594;2023-05-31T12:49:12;9.73;;;2.90;;
18200;SDS011;9226;47.858;9.594;2023-05-31T12:51:58;7.43;;;3.40;;
18200;SDS011;9226;47.858;9.594;2023-05-31T12:54:27;8.10;;;3.10;;
18200;SDS011;9226;47.858;9.594;2023-05-31T12:56:53;7.60;;;2.77;;
18200;SDS011;9226;47.858;9.594;2023-05-31T12:59:20;9.83;;;3.23;;
18200;SDS011;9226;47.858;9.594;2023-05-31T13:01:46;6.83;;;2.80;;
18200;SDS011;9226;47.858;9.594;2023-05-31T13:04:11;7.20;;;2.60;;
18200;SDS011;9226;47.858;9.594;2023-05-31T13:06:38;7.60;;;3.00;;
18200;SDS011;9226;47.858;9.594;2023-05-31T13:09:04;7.37;;;3.07;;
18200;SDS011;9226;47.858;9.594;2023-05-31T13:11:32;5.53;;;2.70;;
18200;SDS011;9226;47.858;9.594;2023-05-31T13:13:59;11.87;;;3.07;;
18200;SDS011;9226;47.858;9.594;2023-05-31T13:16:25;6.43;;;2.90;;
18200;SDS011;9226;47.858;9.594;2023-05-31T13:18:50;8.77;;;2.90;;
18200;SDS011;9226;47.858;9.594;2023-05-31T13:21:16;6.57;;;3.03;;
18200;SDS011;9226;47.858;9.594;2023-05-31T13:23:41;4.33;;;2.90;;
18200;SDS011;9226;47.858;9.594;2023-05-31T13:26:06;9.93;;;2.80;;
18200;SDS011;9226;47.858;9.594;2023-05-31T13:28:32;7.93;;;2.77;;
18200;SDS011;9226;47.858;9.594;2023-05-31T13:30:57;6.37;;;2.73;;
18200;SDS011;9226;47.858;9.594;2023-05-31T13:33:23;7.60;;;2.83;;
18200;SDS011;9226;47.858;9.594;2023-05-31T13:35:51;5.67;;;2.63;;
18200;SDS011;9226;47.858;9.594;2023-05-31T13:38:16;6.47;;;2.77;;
18200;SDS011;9226;47.858;9.594;2023-05-31T13:40:42;7.17;;;2.80;;
18200;SDS011;9226;47.858;9.594;2023-05-31T13:43:08;5.50;;;2.20;;
18200;SDS011;9226;47.858;9.594;2023-05-31T13:45:34;8.70;;;2.77;;
18200;SDS011;9226;47.858;9.594;2023-05-31T13:47:59;6.93;;;2.80;;
18200;SDS011;9226;47.858;9.594;2023-05-31T13:50:25;6.63;;;2.87;;
18200;SDS011;9226;47.858;9.594;2023-05-31T13:52:50;7.17;;;2.90;;
18200;SDS011;9226;47.858;9.594;2023-05-31T13:55:16;6.13;;;2.57;;
18200;SDS011;9226;47.858;9.594;2023-05-31T13:57:41;4.10;;;2.63;;
18200;SDS011;9226;47.858;9.594;2023-05-31T14:00:07;7.53;;;2.50;;
18200;SDS011;9226;47.858;9.594;2023-05-31T14:02:32;8.27;;;2.73;;
18200;SDS011;9226;47.858;9.594;2023-05-31T14:05:00;10.57;;;3.20;;
18200;SDS011;9226;47.858;9.594;2023-05-31T14:07:28;7.97;;;3.50;;
18200;SDS011;9226;47.858;9.594;2023-05-31T14:09:54;6.67;;;2.70;;
18200;SDS011;9226;47.858;9.594;2023-05-31T14:12:20;5.63;;;3.07;;
18200;SDS011;9226;47.858;9.594;2023-05-31T14:14:45;13.13;;;3.23;;
18200;SDS011;9226;47.858;9.594;2023-05-31T14:17:10;9.03;;;2.87;;
18200;SDS011;9226;47.858;9.594;2023-05-31T14:19:36;8.47;;;3.20;;
18200;SDS011;9226;47.858;9.594;2023-05-31T14:22:01;8.90;;;2.73;;
18200;SDS011;9226;47.858;9.594;2023-05-31T14:24:27;6.73;;;2.70;;
18200;SDS011;9226;47.858;9.594;2023-05-31T14:26:53;4.97;;;2.77;;
18200;SDS011;9226;47.858;9.594;2023-05-31T14:29:19;5.10;;;2.57;;
18200;SDS011;9226;47.858;9.594;2023-05-31T14:31:45;5.47;;;2.57;;
18200;SDS011;9226;47.858;9.594;2023-05-31T14:34:11;8.20;;;3.60;;
18200;SDS011;9226;47.858;9.594;2023-05-31T14:36:36;4.63;;;2.60;;
18200;SDS011;9226;47.858;9.594;2023-05-31T14:39:02;4.30;;;2.30;;
18200;SDS011;9226;47.858;9.594;2023-05-31T14:41:28;6.00;;;2.50;;
18200;SDS011;9226;47.858;9.594;2023-05-31T14:43:54;7.90;;;2.90;;
18200;SDS011;9226;47.858;9.594;2023-05-31T14:46:20;7.00;;;2.83;;
18200;SDS011;9226;47.858;9.594;2023-05-31T14:48:45;8.13;;;2.77;;
18200;SDS011;9226;47.858;9.594;2023-05-31T14:51:11;4.53;;;2.67;;
18200;SDS011;9226;47.858;9.594;2023-05-31T14:53:36;5.47;;;2.50;;
18200;SDS011;9226;47.858;9.594;2023-05-31T14:56:02;9.33;;;2.67;;
18200;SDS011;9226;47.858;9.594;2023-05-31T14:58:28;9.03;;;2.90;;
18200;SDS011;9226;47.858;9.594;2023-05-31T15:00:54;6.27;;;2.60;;
18200;SDS011;9226;47.858;9.594;2023-05-31T15:03:19;4.70;;;2.73;;
18200;SDS011;9226;47.858;9.594;2023-05-31T15:05:45;9.53;;;2.57;;
18200;SDS011;9226;47.858;9.594;2023-05-31T15:08:10;6.80;;;2.93;;
18200;SDS011;9226;47.858;9.594;2023-05-31T15:10:36;6.53;;;2.40;;
18200;SDS011;9226;47.858;9.594;2023-05-31T15:13:01;9.23;;;2.50;;
18200;SDS011;9226;47.858;9.594;2023-05-31T15:15:27;5.80;;;2.47;;
18200;SDS011;9226;47.858;9.594;2023-05-31T15:17:52;10.77;;;2.40;;